sensor_id;sensor_type;location;lat;lon;timestamp;noise_LAeq;noise_LA_min;noise_LA_max;noise_LA01;noise_LA95
73638;Laerm;53743;51.100;5.874;2023-09-19T00:00:14;37.87;36.43;39.15;;
73638;Laerm;53743;51.100;5.874;2023-09-19T00:01:19;37.80;36.23;39.35;;
73638;Laerm;53743;51.100;5.874;2023-09-19T00:02:21;43.30;36.41;58.98;;
73638;Laerm;53743;51.100;5.874;2023-09-19T00:03:23;37.70;36.11;38.87;;
73638;Laerm;53743;51.100;5.874;2023-09-19T00:04:25;37.57;36.23;38.78;;
73638;Laerm;53743;51.100;5.874;2023-09-19T00:05:34;37.68;36.41;39.07;;
73638;Laerm;53743;51.100;5.874;2023-09-19T00:06:36;37.65;35.89;38.86;;
73638;Laerm;53743;51.100;5.874;2023-09-19T00:07:38;37.65;35.78;38.83;;
73638;Laerm;53743;51.100;5.874;2023-09-19T00:08:41;37.64;36.09;38.89;;
73638;Laerm;53743;51.100;5.874;2023-09-19T00:09:44;37.62;36.12;38.97;;
73638;Laerm;53743;51.100;5.874;2023-09-19T00:10:45;37.62;36.16;38.93;;
73638;Laerm;53743;51.100;5.874;2023-09-19T00:11:50;37.58;36.09;39.24;;
73638;Laerm;53743;51.100;5.874;2023-09-19T00:12:53;37.56;36.05;39.13;;
73638;Laerm;53743;51.100;5.874;2023-09-19T00:13:58;37.61;36.14;38.99;;
73638;Laerm;53743;51.100;5.874;2023-09-19T00:15:00;41.55;36.34;55.49;;
73638;Laerm;53743;51.100;5.874;2023-09-19T00:16:10;37.65;36.21;38.96;;
73638;Laerm;53743;51.100;5.874;2023-09-19T00:17:11;43.07;36.33;57.14;;
73638;Laerm;53743;51.100;5.874;2023-09-19T00:18:13;40.97;36.19;55.42;;
73638;Laerm;53743;51.100;5.874;2023-09-19T00:19:16;37.56;36.08;38.97;;
73638;Laerm;53743;51.100;5.874;2023-09-19T00:20:18;37.55;36.02;38.95;;
73638;Laerm;53743;51.100;5.874;2023-09-19T00:21:20;40.23;36.21;52.15;;
73638;Laerm;53743;51.100;5.874;2023-09-19T00:22:22;37.74;36.15;39.16;;
73638;Laerm;53743;51.100;5.874;2023-09-19T00:23:23;37.75;36.45;39.22;;
73638;Laerm;53743;51.100;5.874;2023-09-19T00:24:25;37.80;36.47;39.15;;
73638;Laerm;53743;51.100;5.874;2023-09-19T00:25:28;37.85;36.39;39.49;;
73638;Laerm;53743;51.100;5.874;2023-09-19T00:26:31;37.95;36.55;39.39;;
73638;Laerm;53743;51.100;5.874;2023-09-19T00:27:32;37.95;36.37;39.34;;
73638;Laerm;53743;51.100;5.874;2023-09-19T00:28:34;37.85;36.29;39.45;;
73638;Laerm;53743;51.100;5.874;2023-09-19T00:29:38;39.62;36.45;50.32;;
73638;Laerm;53743;51.100;5.874;2023-09-19T00:30:42;37.66;36.20;38.98;;
73638;Laerm;53743;51.100;5.874;2023-09-19T00:31:44;37.74;36.28;39.08;;
73638;Laerm;53743;51.100;5.874;2023-09-19T00:32:47;37.73;36.12;39.36;;
73638;Laerm;53743;51.100;5.874;2023-09-19T00:33:49;37.79;35.95;39.22;;
73638;Laerm;53743;51.100;5.874;2023-09-19T00:34:50;37.79;36.01;39.11;;
73638;Laerm;53743;51.100;5.874;2023-09-19T00:35:54;37.82;36.27;39.32;;
73638;Laerm;53743;51.100;5.874;2023-09-19T00:36:55;37.85;36.38;39.72;;
73638;Laerm;53743;51.100;5.874;2023-09-19T00:37:57;40.26;36.24;51.93;;
73638;Laerm;53743;51.100;5.874;2023-09-19T00:38:58;37.84;36.40;39.22;;
73638;Laerm;53743;51.100;5.874;2023-09-19T00:40:01;40.18;36.22;52.50;;
73638;Laerm;53743;51.100;5.874;2023-09-19T00:41:05;37.79;35.93;39.09;;
73638;Laerm;53743;51.100;5.874;2023-09-19T00:42:08;37.82;36.01;39.21;;
73638;Laerm;53743;51.100;5.874;2023-09-19T00:43:09;37.80;36.44;39.03;;
73638;Laerm;53743;51.100;5.874;2023-09-19T00:44:11;37.88;36.27;39.14;;
73638;Laerm;53743;51.100;5.874;2023-09-19T00:45:16;37.96;36.18;39.42;;
73638;Laerm;53743;51.100;5.874;2023-09-19T00:46:19;40.42;36.68;52.22;;
73638;Laerm;53743;51.100;5.874;2023-09-19T00:47:21;38.12;36.63;40.40;;
73638;Laerm;53743;51.100;5.874;2023-09-19T00:48:25;37.99;36.60;39.27;;
73638;Laerm;53743;51.100;5.874;2023-09-19T00:49:28;37.99;36.42;39.38;;
73638;Laerm;53743;51.100;5.874;2023-09-19T00:50:30;37.98;36.55;39.35;;
73638;Laerm;53743;51.100;5.874;2023-09-19T00:51:35;38.07;36.59;39.35;;
73638;Laerm;53743;51.100;5.874;2023-09-19T00:52:38;38.08;36.84;39.32;;
73638;Laerm;53743;51.100;5.874;2023-09-19T00:53:41;38.06;36.54;39.94;;
73638;Laerm;53743;51.100;5.874;2023-09-19T00:54:47;38.11;36.76;39.32;;
73638;Laerm;53743;51.100;5.874;2023-09-19T00:55:51;38.02;35.79;39.57;;
73638;Laerm;53743;51.100;5.874;2023-09-19T00:56:52;38.05;36.74;39.45;;
73638;Laerm;53743;51.100;5.874;2023-09-19T00:57:56;38.09;36.48;39.45;;
73638;Laerm;53743;51.100;5.874;2023-09-19T00:58:57;38.10;36.62;39.49;;
73638;Laerm;53743;51.100;5.874;2023-09-19T01:00:01;40.49;36.68;51.29;;
73638;Laerm;53743;51.100;5.874;2023-09-19T01:01:07;37.93;36.26;39.31;;
73638;Laerm;53743;51.100;5.874;2023-09-19T01:02:12;37.91;36.20;39.27;;
73638;Laerm;53743;51.100;5.874;2023-09-19T01:03:14;40.31;36.58;51.67;;
73638;Laerm;53743;51.100;5.874;2023-09-19T01:04:17;38.21;36.74;41.51;;
73638;Laerm;53743;51.100;5.874;2023-09-19T01:05:19;37.99;36.72;39.52;;
73638;Laerm;53743;51.100;5.874;2023-09-19T01:06:21;38.02;36.60;39.31;;
73638;Laerm;53743;51.100;5.874;2023-09-19T01:07:23;38.00;36.52;39.65;;
73638;Laerm;53743;51.100;5.874;2023-09-19T01:08:24;37.94;36.60;39.45;;
73638;Laerm;53743;51.100;5.874;2023-09-19T01:09:30;37.98;36.56;39.36;;
73638;Laerm;53743;51.100;5.874;2023-09-19T01:10:31;37.92;36.64;39.32;;
73638;Laerm;53743;51.100;5.874;2023-09-19T01:11:42;37.93;36.51;39.28;;
73638;Laerm;53743;51.100;5.874;2023-09-19T01:12:55;37.94;36.46;39.24;;
73638;Laerm;53743;51.100;5.874;2023-09-19T01:14:17;38.01;36.32;39.37;;
73638;Laerm;53743;51.100;5.874;2023-09-19T01:15:40;37.93;36.20;39.20;;
73638;Laerm;53743;51.100;5.874;2023-09-19T01:17:00;37.92;36.54;39.42;;
73638;Laerm;53743;51.100;5.874;2023-09-19T01:18:19;40.38;36.34;54.11;;
73638;Laerm;53743;51.100;5.874;2023-09-19T01:20:13;37.86;36.40;39.17;;
73638;Laerm;53743;51.100;5.874;2023-09-19T01:21:28;37.91;36.44;39.38;;
73638;Laerm;53743;51.100;5.874;2023-09-19T01:22:48;37.82;36.46;39.49;;
73638;Laerm;53743;51.100;5.874;2023-09-19T01:24:30;37.70;36.22;39.13;;
73638;Laerm;53743;51.100;5.874;2023-09-19T01:26:11;37.72;36.37;39.14;;
73638;Laerm;53743;51.100;5.874;2023-09-19T01:27:45;37.65;35.97;38.97;;
73638;Laerm;53743;51.100;5.874;2023-09-19T01:29:26;39.17;35.76;57.35;;
73638;Laerm;53743;51.100;5.874;2023-09-19T01:30:40;37.42;36.02;38.86;;
73638;Laerm;53743;51.100;5.874;2023-09-19T01:31:47;37.44;35.94;38.81;;
73638;Laerm;53743;51.100;5.874;2023-09-19T01:32:51;37.36;35.79;38.84;;
73638;Laerm;53743;51.100;5.874;2023-09-19T01:33:56;37.37;35.82;38.61;;
73638;Laerm;53743;51.100;5.874;2023-09-19T01:35:00;37.42;35.84;38.65;;
73638;Laerm;53743;51.100;5.874;2023-09-19T01:36:05;37.42;35.82;38.85;;
73638;Laerm;53743;51.100;5.874;2023-09-19T01:37:09;37.47;36.10;39.13;;
73638;Laerm;53743;51.100;5.874;2023-09-19T01:38:11;38.79;36.13;48.48;;
73638;Laerm;53743;51.100;5.874;2023-09-19T01:39:14;40.42;35.98;53.86;;
73638;Laerm;53743;51.100;5.874;2023-09-19T01:40:20;37.26;35.84;38.66;;
73638;Laerm;53743;51.100;5.874;2023-09-19T01:41:41;37.24;35.91;38.67;;
73638;Laerm;53743;51.100;5.874;2023-09-19T01:42:57;37.28;35.83;38.67;;
73638;Laerm;53743;51.100;5.874;2023-09-19T01:44:06;37.33;35.47;38.60;;
73638;Laerm;53743;51.100;5.874;2023-09-19T01:45:22;37.38;35.89;38.66;;
73638;Laerm;53743;51.100;5.874;2023-09-19T01:46:34;37.42;35.91;38.87;;
73638;Laerm;53743;51.100;5.874;2023-09-19T01:47:48;37.37;35.82;38.82;;
73638;Laerm;53743;51.100;5.874;2023-09-19T01:49:06;37.44;36.05;38.83;;
73638;Laerm;53743;51.100;5.874;2023-09-19T01:50:24;37.55;35.76;38.81;;
73638;Laerm;53743;51.100;5.874;2023-09-19T01:51:41;37.63;36.22;38.99;;
73638;Laerm;53743;51.100;5.874;2023-09-19T01:53:04;37.71;36.21;39.07;;
73638;Laerm;53743;51.100;5.874;2023-09-19T01:54:12;37.70;36.30;39.09;;
73638;Laerm;53743;51.100;5.874;2023-09-19T01:55:17;37.68;36.42;39.09;;
73638;Laerm;53743;51.100;5.874;2023-09-19T01:56:32;38.95;36.09;49.02;;
73638;Laerm;53743;51.100;5.874;2023-09-19T01:57:51;38.58;36.48;46.09;;
73638;Laerm;53743;51.100;5.874;2023-09-19T01:59:05;37.77;36.35;39.18;;
73638;Laerm;53743;51.100;5.874;2023-09-19T02:00:14;37.67;36.26;39.20;;
73638;Laerm;53743;51.100;5.874;2023-09-19T02:01:24;37.63;36.27;39.16;;
73638;Laerm;53743;51.100;5.874;2023-09-19T02:02:30;37.66;35.90;38.92;;
73638;Laerm;53743;51.100;5.874;2023-09-19T02:03:33;37.68;36.31;38.98;;
73638;Laerm;53743;51.100;5.874;2023-09-19T02:04:36;37.71;36.27;39.06;;
73638;Laerm;53743;51.100;5.874;2023-09-19T02:05:38;38.89;36.16;49.46;;
73638;Laerm;53743;51.100;5.874;2023-09-19T02:06:41;37.62;36.16;38.93;;
73638;Laerm;53743;51.100;5.874;2023-09-19T02:07:42;37.67;36.27;39.06;;
73638;Laerm;53743;51.100;5.874;2023-09-19T02:08:46;37.61;36.11;39.07;;
73638;Laerm;53743;51.100;5.874;2023-09-19T02:09:48;37.60;35.74;38.76;;
73638;Laerm;53743;51.100;5.874;2023-09-19T02:10:50;37.65;36.25;38.91;;
73638;Laerm;53743;51.100;5.874;2023-09-19T02:11:51;37.62;36.13;38.83;;
73638;Laerm;53743;51.100;5.874;2023-09-19T02:12:53;37.65;36.20;39.03;;
73638;Laerm;53743;51.100;5.874;2023-09-19T02:13:55;37.63;36.21;38.87;;
73638;Laerm;53743;51.100;5.874;2023-09-19T02:14:56;38.19;36.39;44.39;;
73638;Laerm;53743;51.100;5.874;2023-09-19T02:16:00;37.64;36.35;38.96;;
73638;Laerm;53743;51.100;5.874;2023-09-19T02:17:01;37.61;36.35;39.11;;
73638;Laerm;53743;51.100;5.874;2023-09-19T02:18:05;37.62;36.02;39.42;;
73638;Laerm;53743;51.100;5.874;2023-09-19T02:19:08;37.64;36.16;39.05;;
73638;Laerm;53743;51.100;5.874;2023-09-19T02:20:11;37.69;36.22;39.32;;
73638;Laerm;53743;51.100;5.874;2023-09-19T02:21:15;41.87;36.29;57.25;;
73638;Laerm;53743;51.100;5.874;2023-09-19T02:22:17;37.74;36.39;39.87;;
73638;Laerm;53743;51.100;5.874;2023-09-19T02:23:19;39.35;36.31;49.32;;
73638;Laerm;53743;51.100;5.874;2023-09-19T02:24:21;37.78;36.32;39.00;;
73638;Laerm;53743;51.100;5.874;2023-09-19T02:25:22;37.83;36.38;39.20;;
73638;Laerm;53743;51.100;5.874;2023-09-19T02:26:23;37.75;36.46;39.36;;
73638;Laerm;53743;51.100;5.874;2023-09-19T02:27:25;37.74;36.09;39.27;;
73638;Laerm;53743;51.100;5.874;2023-09-19T02:28:26;37.80;36.43;39.53;;
73638;Laerm;53743;51.100;5.874;2023-09-19T02:29:30;39.78;36.33;54.97;;
73638;Laerm;53743;51.100;5.874;2023-09-19T02:30:33;37.79;36.24;39.44;;
73638;Laerm;53743;51.100;5.874;2023-09-19T02:31:34;37.77;36.42;39.19;;
73638;Laerm;53743;51.100;5.874;2023-09-19T02:32:36;38.42;36.45;45.01;;
73638;Laerm;53743;51.100;5.874;2023-09-19T02:33:40;38.43;36.63;45.53;;
73638;Laerm;53743;51.100;5.874;2023-09-19T02:34:43;41.10;36.57;54.86;;
73638;Laerm;53743;51.100;5.874;2023-09-19T02:35:45;39.69;36.43;50.77;;
73638;Laerm;53743;51.100;5.874;2023-09-19T02:36:47;38.61;36.55;45.73;;
73638;Laerm;53743;51.100;5.874;2023-09-19T02:37:48;37.95;36.49;39.33;;
73638;Laerm;53743;51.100;5.874;2023-09-19T02:38:50;37.91;36.55;39.38;;
73638;Laerm;53743;51.100;5.874;2023-09-19T02:39:51;37.95;36.21;39.25;;
73638;Laerm;53743;51.100;5.874;2023-09-19T02:40:53;38.06;36.73;39.44;;
73638;Laerm;53743;51.100;5.874;2023-09-19T02:41:55;38.01;36.59;39.45;;
73638;Laerm;53743;51.100;5.874;2023-09-19T02:42:57;37.91;36.55;39.59;;
73638;Laerm;53743;51.100;5.874;2023-09-19T02:43:59;37.86;36.35;39.13;;
73638;Laerm;53743;51.100;5.874;2023-09-19T02:45:05;37.86;36.38;39.41;;
73638;Laerm;53743;51.100;5.874;2023-09-19T02:46:06;37.89;36.47;39.15;;
73638;Laerm;53743;51.100;5.874;2023-09-19T02:47:08;40.28;36.37;53.19;;
73638;Laerm;53743;51.100;5.874;2023-09-19T02:48:10;37.89;36.52;39.45;;
73638;Laerm;53743;51.100;5.874;2023-09-19T02:49:13;37.89;36.50;39.22;;
73638;Laerm;53743;51.100;5.874;2023-09-19T02:50:17;37.88;36.49;39.22;;
73638;Laerm;53743;51.100;5.874;2023-09-19T02:51:18;40.59;36.53;53.26;;
73638;Laerm;53743;51.100;5.874;2023-09-19T02:52:21;40.56;36.54;52.56;;
73638;Laerm;53743;51.100;5.874;2023-09-19T02:53:22;37.89;36.24;39.48;;
73638;Laerm;53743;51.100;5.874;2023-09-19T02:54:25;37.91;36.46;39.23;;
73638;Laerm;53743;51.100;5.874;2023-09-19T02:55:26;38.01;36.45;39.32;;
73638;Laerm;53743;51.100;5.874;2023-09-19T02:56:29;37.97;36.17;39.33;;
73638;Laerm;53743;51.100;5.874;2023-09-19T02:57:32;37.91;36.44;39.34;;
73638;Laerm;53743;51.100;5.874;2023-09-19T02:58:35;41.24;36.38;54.67;;
73638;Laerm;53743;51.100;5.874;2023-09-19T02:59:36;39.00;36.57;48.67;;
73638;Laerm;53743;51.100;5.874;2023-09-19T03:00:38;37.82;36.23;39.27;;
73638;Laerm;53743;51.100;5.874;2023-09-19T03:01:42;37.88;36.42;39.35;;
73638;Laerm;53743;51.100;5.874;2023-09-19T03:02:45;40.29;36.57;52.91;;
73638;Laerm;53743;51.100;5.874;2023-09-19T03:03:47;44.08;36.42;58.16;;
73638;Laerm;53743;51.100;5.874;2023-09-19T03:04:50;39.51;36.43;53.34;;
73638;Laerm;53743;51.100;5.874;2023-09-19T03:05:52;37.87;36.25;39.25;;
73638;Laerm;53743;51.100;5.874;2023-09-19T03:06:54;37.93;36.55;39.41;;
73638;Laerm;53743;51.100;5.874;2023-09-19T03:07:59;37.92;36.28;39.85;;
73638;Laerm;53743;51.100;5.874;2023-09-19T03:09:02;37.95;36.48;39.20;;
73638;Laerm;53743;51.100;5.874;2023-09-19T03:10:08;39.59;36.58;50.74;;
73638;Laerm;53743;51.100;5.874;2023-09-19T03:11:10;37.89;36.50;39.82;;
73638;Laerm;53743;51.100;5.874;2023-09-19T03:12:15;40.06;36.72;49.89;;
73638;Laerm;53743;51.100;5.874;2023-09-19T03:13:17;39.77;36.41;54.71;;
73638;Laerm;53743;51.100;5.874;2023-09-19T03:14:19;37.97;36.39;40.05;;
73638;Laerm;53743;51.100;5.874;2023-09-19T03:15:21;37.90;36.31;39.38;;
73638;Laerm;53743;51.100;5.874;2023-09-19T03:16:25;37.96;36.50;39.57;;
73638;Laerm;53743;51.100;5.874;2023-09-19T03:17:29;39.60;36.50;50.03;;
73638;Laerm;53743;51.100;5.874;2023-09-19T03:18:31;37.98;36.31;39.74;;
73638;Laerm;53743;51.100;5.874;2023-09-19T03:19:32;37.96;36.50;39.39;;
73638;Laerm;53743;51.100;5.874;2023-09-19T03:20:36;38.02;36.44;39.54;;
73638;Laerm;53743;51.100;5.874;2023-09-19T03:21:37;41.98;36.48;53.48;;
73638;Laerm;53743;51.100;5.874;2023-09-19T03:22:40;37.91;36.38;39.54;;
73638;Laerm;53743;51.100;5.874;2023-09-19T03:23:41;38.23;36.44;43.45;;
73638;Laerm;53743;51.100;5.874;2023-09-19T03:24:46;41.78;36.69;56.65;;
73638;Laerm;53743;51.100;5.874;2023-09-19T03:25:47;37.96;36.43;39.40;;
73638;Laerm;53743;51.100;5.874;2023-09-19T03:26:49;40.88;36.28;53.42;;
73638;Laerm;53743;51.100;5.874;2023-09-19T03:27:51;40.93;36.30;53.44;;
73638;Laerm;53743;51.100;5.874;2023-09-19T03:28:54;38.00;36.53;39.80;;
73638;Laerm;53743;51.100;5.874;2023-09-19T03:29:55;37.89;36.61;39.43;;
73638;Laerm;53743;51.100;5.874;2023-09-19T03:30:59;37.89;36.37;39.31;;
73638;Laerm;53743;51.100;5.874;2023-09-19T03:32:01;40.04;36.50;51.34;;
73638;Laerm;53743;51.100;5.874;2023-09-19T03:33:04;39.71;36.45;51.23;;
73638;Laerm;53743;51.100;5.874;2023-09-19T03:34:06;39.51;36.48;49.89;;
73638;Laerm;53743;51.100;5.874;2023-09-19T03:35:09;40.06;36.35;50.37;;
73638;Laerm;53743;51.100;5.874;2023-09-19T03:36:11;40.08;36.28;51.27;;
73638;Laerm;53743;51.100;5.874;2023-09-19T03:37:15;37.82;36.09;39.41;;
73638;Laerm;53743;51.100;5.874;2023-09-19T03:38:16;37.85;36.34;39.37;;
73638;Laerm;53743;51.100;5.874;2023-09-19T03:39:18;37.79;36.44;39.16;;
73638;Laerm;53743;51.100;5.874;2023-09-19T03:40:20;37.83;36.52;38.98;;
73638;Laerm;53743;51.100;5.874;2023-09-19T03:41:24;39.27;36.35;50.25;;
73638;Laerm;53743;51.100;5.874;2023-09-19T03:42:25;37.76;36.31;39.01;;
73638;Laerm;53743;51.100;5.874;2023-09-19T03:43:28;39.37;36.47;48.64;;
73638;Laerm;53743;51.100;5.874;2023-09-19T03:44:29;37.81;36.20;39.70;;
73638;Laerm;53743;51.100;5.874;2023-09-19T03:45:33;37.83;36.53;39.27;;
73638;Laerm;53743;51.100;5.874;2023-09-19T03:46:34;40.42;36.37;56.02;;
73638;Laerm;53743;51.100;5.874;2023-09-19T03:47:38;40.26;36.56;49.99;;
73638;Laerm;53743;51.100;5.874;2023-09-19T03:48:39;43.14;36.41;58.38;;
73638;Laerm;53743;51.100;5.874;2023-09-19T03:49:41;42.97;36.25;56.50;;
73638;Laerm;53743;51.100;5.874;2023-09-19T03:50:42;37.80;36.19;39.31;;
73638;Laerm;53743;51.100;5.874;2023-09-19T03:51:46;39.51;36.54;54.34;;
73638;Laerm;53743;51.100;5.874;2023-09-19T03:52:47;37.84;36.26;39.31;;
73638;Laerm;53743;51.100;5.874;2023-09-19T03:53:49;37.76;36.45;38.95;;
73638;Laerm;53743;51.100;5.874;2023-09-19T03:54:51;39.55;36.53;49.80;;
73638;Laerm;53743;51.100;5.874;2023-09-19T03:55:53;40.59;36.11;52.98;;
73638;Laerm;53743;51.100;5.874;2023-09-19T03:56:54;43.41;36.82;55.66;;
73638;Laerm;53743;51.100;5.874;2023-09-19T03:57:56;40.38;36.71;49.56;;
73638;Laerm;53743;51.100;5.874;2023-09-19T03:58:57;40.79;36.01;52.33;;
73638;Laerm;53743;51.100;5.874;2023-09-19T03:59:59;41.30;36.40;53.65;;
73638;Laerm;53743;51.100;5.874;2023-09-19T04:01:00;39.45;36.40;49.19;;
73638;Laerm;53743;51.100;5.874;2023-09-19T04:02:03;37.73;36.19;39.10;;
73638;Laerm;53743;51.100;5.874;2023-09-19T04:03:05;37.86;36.49;39.15;;
73638;Laerm;53743;51.100;5.874;2023-09-19T04:04:07;37.87;36.56;39.13;;
73638;Laerm;53743;51.100;5.874;2023-09-19T04:05:10;39.97;36.65;51.68;;
73638;Laerm;53743;51.100;5.874;2023-09-19T04:06:12;43.29;36.39;56.79;;
73638;Laerm;53743;51.100;5.874;2023-09-19T04:07:15;42.90;36.45;56.65;;
73638;Laerm;53743;51.100;5.874;2023-09-19T04:08:17;37.75;36.19;39.56;;
73638;Laerm;53743;51.100;5.874;2023-09-19T04:09:18;40.20;36.41;51.70;;
73638;Laerm;53743;51.100;5.874;2023-09-19T04:10:20;40.21;36.25;52.41;;
73638;Laerm;53743;51.100;5.874;2023-09-19T04:11:21;40.45;36.36;50.95;;
73638;Laerm;53743;51.100;5.874;2023-09-19T04:12:23;42.41;36.56;53.28;;
73638;Laerm;53743;51.100;5.874;2023-09-19T04:13:26;40.40;36.35;52.60;;
73638;Laerm;53743;51.100;5.874;2023-09-19T04:14:28;37.63;35.89;39.18;;
73638;Laerm;53743;51.100;5.874;2023-09-19T04:15:29;37.65;36.35;39.14;;
73638;Laerm;53743;51.100;5.874;2023-09-19T04:16:31;39.33;35.87;49.14;;
73638;Laerm;53743;51.100;5.874;2023-09-19T04:17:32;42.21;36.45;55.59;;
73638;Laerm;53743;51.100;5.874;2023-09-19T04:18:34;41.89;36.19;54.01;;
73638;Laerm;53743;51.100;5.874;2023-09-19T04:19:38;39.40;36.13;49.93;;
73638;Laerm;53743;51.100;5.874;2023-09-19T04:20:41;41.16;36.18;52.43;;
73638;Laerm;53743;51.100;5.874;2023-09-19T04:21:49;38.90;36.18;48.20;;
73638;Laerm;53743;51.100;5.874;2023-09-19T04:22:52;45.00;37.22;55.28;;
73638;Laerm;53743;51.100;5.874;2023-09-19T04:23:54;37.92;35.89;45.59;;
73638;Laerm;53743;51.100;5.874;2023-09-19T04:24:55;43.17;36.10;56.09;;
73638;Laerm;53743;51.100;5.874;2023-09-19T04:25:58;39.50;36.02;50.11;;
73638;Laerm;53743;51.100;5.874;2023-09-19T04:26:59;41.89;36.32;52.84;;
73638;Laerm;53743;51.100;5.874;2023-09-19T04:28:01;41.44;35.86;55.49;;
73638;Laerm;53743;51.100;5.874;2023-09-19T04:29:02;43.76;36.04;59.27;;
73638;Laerm;53743;51.100;5.874;2023-09-19T04:30:08;37.49;35.93;42.24;;
73638;Laerm;53743;51.100;5.874;2023-09-19T04:31:11;43.51;36.36;54.92;;
73638;Laerm;53743;51.100;5.874;2023-09-19T04:32:15;41.97;35.95;53.07;;
73638;Laerm;53743;51.100;5.874;2023-09-19T04:33:17;42.59;35.95;54.56;;
73638;Laerm;53743;51.100;5.874;2023-09-19T04:34:20;42.04;35.84;53.48;;
73638;Laerm;53743;51.100;5.874;2023-09-19T04:35:21;43.35;35.96;55.85;;
73638;Laerm;53743;51.100;5.874;2023-09-19T04:36:23;40.88;35.95;54.40;;
73638;Laerm;53743;51.100;5.874;2023-09-19T04:37:24;43.54;35.68;53.38;;
73638;Laerm;53743;51.100;5.874;2023-09-19T04:38:26;43.34;35.71;55.93;;
73638;Laerm;53743;51.100;5.874;2023-09-19T04:39:29;41.02;35.46;53.84;;
73638;Laerm;53743;51.100;5.874;2023-09-19T04:40:31;40.41;35.51;54.68;;
73638;Laerm;53743;51.100;5.874;2023-09-19T04:41:34;43.32;35.66;56.28;;
73638;Laerm;53743;51.100;5.874;2023-09-19T04:42:35;37.20;35.27;41.76;;
73638;Laerm;53743;51.100;5.874;2023-09-19T04:43:37;38.42;35.52;48.25;;
73638;Laerm;53743;51.100;5.874;2023-09-19T04:44:38;44.80;35.69;55.05;;
73638;Laerm;53743;51.100;5.874;2023-09-19T04:45:40;44.00;35.87;53.77;;
73638;Laerm;53743;51.100;5.874;2023-09-19T04:46:41;46.83;35.61;59.38;;
73638;Laerm;53743;51.100;5.874;2023-09-19T04:47:43;44.06;35.29;53.17;;
73638;Laerm;53743;51.100;5.874;2023-09-19T04:48:45;40.77;35.22;53.54;;
73638;Laerm;53743;51.100;5.874;2023-09-19T04:49:47;42.60;35.24;55.61;;
73638;Laerm;53743;51.100;5.874;2023-09-19T04:50:48;47.69;35.80;55.24;;
73638;Laerm;53743;51.100;5.874;2023-09-19T04:51:51;43.63;35.33;55.65;;
73638;Laerm;53743;51.100;5.874;2023-09-19T04:52:52;40.53;35.35;52.17;;
73638;Laerm;53743;51.100;5.874;2023-09-19T04:53:55;45.85;35.26;55.91;;
73638;Laerm;53743;51.100;5.874;2023-09-19T04:54:57;45.96;35.32;55.73;;
73638;Laerm;53743;51.100;5.874;2023-09-19T04:55:58;40.63;35.26;52.12;;
73638;Laerm;53743;51.100;5.874;2023-09-19T04:56:59;43.99;35.49;55.81;;
73638;Laerm;53743;51.100;5.874;2023-09-19T04:58:02;43.63;35.83;53.13;;
73638;Laerm;53743;51.100;5.874;2023-09-19T04:59:03;38.84;34.93;50.96;;
73638;Laerm;53743;51.100;5.874;2023-09-19T05:00:07;44.49;35.15;57.65;;
73638;Laerm;53743;51.100;5.874;2023-09-19T05:01:12;44.05;35.69;55.76;;
73638;Laerm;53743;51.100;5.874;2023-09-19T05:02:16;44.88;36.26;54.65;;
73638;Laerm;53743;51.100;5.874;2023-09-19T05:03:17;42.25;35.40;53.40;;
73638;Laerm;53743;51.100;5.874;2023-09-19T05:04:21;42.03;35.51;51.96;;
73638;Laerm;53743;51.100;5.874;2023-09-19T05:05:23;44.60;35.36;59.60;;
73638;Laerm;53743;51.100;5.874;2023-09-19T05:06:26;42.39;35.09;55.70;;
73638;Laerm;53743;51.100;5.874;2023-09-19T05:07:27;43.40;34.99;54.63;;
73638;Laerm;53743;51.100;5.874;2023-09-19T05:08:29;46.06;35.55;57.48;;
73638;Laerm;53743;51.100;5.874;2023-09-19T05:09:32;41.88;35.34;53.17;;
73638;Laerm;53743;51.100;5.874;2023-09-19T05:10:35;44.64;35.22;55.75;;
73638;Laerm;53743;51.100;5.874;2023-09-19T05:11:38;43.49;35.24;56.31;;
73638;Laerm;53743;51.100;5.874;2023-09-19T05:12:41;45.80;35.57;56.52;;
73638;Laerm;53743;51.100;5.874;2023-09-19T05:13:42;40.66;35.15;53.46;;
73638;Laerm;53743;51.100;5.874;2023-09-19T05:14:44;45.49;35.34;55.06;;
73638;Laerm;53743;51.100;5.874;2023-09-19T05:15:45;44.33;35.59;56.61;;
73638;Laerm;53743;51.100;5.874;2023-09-19T05:16:47;36.60;35.17;41.11;;
73638;Laerm;53743;51.100;5.874;2023-09-19T05:17:49;46.20;35.34;56.50;;
73638;Laerm;53743;51.100;5.874;2023-09-19T05:18:51;45.66;35.65;58.08;;
73638;Laerm;53743;51.100;5.874;2023-09-19T05:19:53;44.18;35.75;55.40;;
73638;Laerm;53743;51.100;5.874;2023-09-19T05:20:54;47.34;36.14;56.18;;
73638;Laerm;53743;51.100;5.874;2023-09-19T05:21:56;43.74;35.75;54.80;;
73638;Laerm;53743;51.100;5.874;2023-09-19T05:22:59;44.20;35.57;53.85;;
73638;Laerm;53743;51.100;5.874;2023-09-19T05:24:03;43.60;35.44;56.08;;
73638;Laerm;53743;51.100;5.874;2023-09-19T05:25:08;46.16;35.32;58.16;;
73638;Laerm;53743;51.100;5.874;2023-09-19T05:26:11;48.44;36.10;57.59;;
73638;Laerm;53743;51.100;5.874;2023-09-19T05:27:12;46.69;35.72;57.20;;
73638;Laerm;53743;51.100;5.874;2023-09-19T05:28:14;44.69;35.77;54.02;;
73638;Laerm;53743;51.100;5.874;2023-09-19T05:29:16;42.60;35.42;53.90;;
73638;Laerm;53743;51.100;5.874;2023-09-19T05:30:18;43.58;35.35;53.21;;
73638;Laerm;53743;51.100;5.874;2023-09-19T05:31:21;47.41;36.42;57.67;;
73638;Laerm;53743;51.100;5.874;2023-09-19T05:32:24;45.27;35.65;56.86;;
73638;Laerm;53743;51.100;5.874;2023-09-19T05:33:25;43.36;35.78;59.46;;
73638;Laerm;53743;51.100;5.874;2023-09-19T05:34:27;43.12;35.60;52.70;;
73638;Laerm;53743;51.100;5.874;2023-09-19T05:35:31;45.52;35.78;53.83;;
73638;Laerm;53743;51.100;5.874;2023-09-19T05:36:33;48.51;37.00;57.62;;
73638;Laerm;53743;51.100;5.874;2023-09-19T05:37:35;43.25;35.95;55.01;;
73638;Laerm;53743;51.100;5.874;2023-09-19T05:38:37;47.60;38.61;59.39;;
73638;Laerm;53743;51.100;5.874;2023-09-19T05:39:40;48.04;36.13;56.09;;
73638;Laerm;53743;51.100;5.874;2023-09-19T05:40:45;47.06;36.72;58.02;;
73638;Laerm;53743;51.100;5.874;2023-09-19T05:41:46;43.20;36.62;51.64;;
73638;Laerm;53743;51.100;5.874;2023-09-19T05:42:48;45.14;36.15;54.55;;
73638;Laerm;53743;51.100;5.874;2023-09-19T05:43:51;42.37;35.63;52.81;;
73638;Laerm;53743;51.100;5.874;2023-09-19T05:44:53;42.48;35.91;54.19;;
73638;Laerm;53743;51.100;5.874;2023-09-19T05:45:54;44.61;36.10;53.82;;
73638;Laerm;53743;51.100;5.874;2023-09-19T05:46:57;45.39;36.43;54.56;;
73638;Laerm;53743;51.100;5.874;2023-09-19T05:48:08;45.71;36.30;53.91;;
73638;Laerm;53743;51.100;5.874;2023-09-19T05:49:12;47.77;35.70;56.09;;
73638;Laerm;53743;51.100;5.874;2023-09-19T05:50:13;45.03;36.60;55.52;;
73638;Laerm;53743;51.100;5.874;2023-09-19T05:51:15;45.42;36.89;55.26;;
73638;Laerm;53743;51.100;5.874;2023-09-19T05:52:18;45.92;36.46;58.19;;
73638;Laerm;53743;51.100;5.874;2023-09-19T05:53:23;47.19;36.45;57.03;;
73638;Laerm;53743;51.100;5.874;2023-09-19T05:54:27;44.14;35.50;55.32;;
73638;Laerm;53743;51.100;5.874;2023-09-19T05:55:28;44.91;36.06;52.29;;
73638;Laerm;53743;51.100;5.874;2023-09-19T05:56:31;55.79;37.50;82.04;;
73638;Laerm;53743;51.100;5.874;2023-09-19T05:57:33;46.86;37.55;54.86;;
73638;Laerm;53743;51.100;5.874;2023-09-19T05:58:34;44.56;35.97;53.90;;